Time;durP1;ratioP1;P1;durP2;ratioP2;P2;SDS_P1;SDS_P2;PMS_P1;PMS_P2;Temp;Humidity;BMP_temperature;BMP_pressure;BME280_temperature;BME280_humidity;BME280_pressure;Samples;Min_cycle;Max_cycle;Signal;HPM_P1;HPM_P2
2023/05/01 00:00:59;;;;;;;;;25.00;23.00;;;;;17.51;84.74;101294.38;5100567;27;45389;-75
2023/05/01 00:03:25;;;;;;;;;24.67;22.33;;;;;17.40;85.26;101275.16;5100383;27;45440;-75
2023/05/01 00:05:50;;;;;;;;;24.00;24.00;;;;;17.46;85.62;101275.34;5100357;27;45290;-75
2023/05/01 00:08:16;;;;;;;;;27.67;24.33;;;;;17.27;85.25;101253.66;5100476;27;45296;-75
2023/05/01 00:10:41;;;;;;;;;23.67;23.67;;;;;17.36;85.56;101275.78;5100656;27;45331;-75
2023/05/01 00:13:08;;;;;;;;;21.00;20.00;;;;;17.34;85.84;101280.53;5100309;27;45500;-75
2023/05/01 00:15:34;;;;;;;;;18.00;17.00;;;;;17.11;85.62;101242.28;5081969;27;47241;-75
2023/05/01 00:17:59;;;;;;;;;19.00;19.00;;;;;17.24;85.48;101257.56;5100080;27;45325;-75
2023/05/01 00:20:27;;;;;;;;;15.33;15.00;;;;;17.08;85.09;101242.69;5082048;27;45318;-75
2023/05/01 00:22:52;;;;;;;;;22.00;21.00;;;;;17.16;86.00;101255.09;5100425;27;45259;-75
2023/05/01 00:25:17;;;;;;;;;20.67;19.33;;;;;17.00;86.08;101232.94;5100023;27;45341;-75
2023/05/01 00:27:43;;;;;;;;;23.00;22.00;;;;;17.19;85.58;101261.91;5100281;27;45336;-75
2023/05/01 00:30:09;;;;;;;;;19.33;19.33;;;;;17.07;86.03;101249.13;5100252;27;45509;-75
2023/05/01 00:32:34;;;;;;;;;21.00;20.33;;;;;16.97;85.96;101230.69;5099348;27;45564;-75
2023/05/01 00:34:59;;;;;;;;;22.00;20.33;;;;;17.09;85.92;101254.28;5100030;27;45788;-75
2023/05/01 00:37:25;;;;;;;;;18.00;18.00;;;;;16.94;85.50;101236.44;5075523;28;45645;-76
2023/05/01 00:39:50;;;;;;;;;19.33;19.33;;;;;17.01;85.79;101257.94;5079831;28;45311;-76
2023/05/01 00:42:16;;;;;;;;;20.67;19.00;;;;;17.00;85.74;101259.81;5079673;28;45503;-75
2023/05/01 00:44:41;;;;;;;;;26.67;24.00;;;;;16.95;86.14;101250.72;5079406;28;48654;-75
2023/05/01 00:47:06;;;;;;;;;21.00;21.00;;;;;16.93;85.79;101248.22;5061046;28;45428;-75
2023/05/01 00:49:32;;;;;;;;;19.33;18.67;;;;;16.86;86.38;101248.25;5079719;28;45346;-76
2023/05/01 00:51:57;;;;;;;;;18.00;17.33;;;;;16.69;86.21;101212.88;5061156;28;46811;-76
2023/05/01 00:54:25;;;;;;;;;16.33;16.33;;;;;16.87;86.27;101252.56;5079379;28;45253;-75
2023/05/01 00:56:51;;;;;;;;;17.33;17.33;;;;;16.73;86.14;101234.78;5061308;28;45310;-76
2023/05/01 00:59:16;;;;;;;;;19.33;19.33;;;;;16.64;86.69;101208.13;5060463;28;45322;-75
2023/05/01 01:01:42;;;;;;;;;22.67;21.67;;;;;16.70;86.89;101213.72;5077814;28;45491;-75
2023/05/01 01:04:07;;;;;;;;;21.33;19.67;;;;;16.68;87.29;101205.88;5078143;28;45272;-75
2023/05/01 01:06:43;;;;;;;;;21.67;21.00;;;;;16.81;87.36;101223.00;5058812;28;45352;-76
2023/05/01 01:09:17;;;;;;;;;21.67;21.67;;;;;16.89;87.52;101236.25;5077284;28;45449;-76
2023/05/01 01:12:05;;;;;;;;;20.33;19.00;;;;;16.87;88.36;101230.25;5079075;28;45374;-76
2023/05/01 01:15:00;;;;;;;;;24.00;23.00;;;;;16.88;88.45;101231.94;5060887;28;47305;-76
2023/05/01 01:17:42;;;;;;;;;21.00;21.00;;;;;16.91;88.14;101220.75;5043289;28;45375;-75
2023/05/01 01:20:22;;;;;;;;;21.00;20.67;;;;;16.96;88.28;101220.97;5079211;28;45401;-75
2023/05/01 01:22:56;;;;;;;;;22.33;22.33;;;;;16.94;87.91;101208.78;5079125;28;45413;-76
2023/05/01 01:25:48;;;;;;;;;21.00;20.67;;;;;16.89;87.77;101204.88;5078756;28;47281;-75
2023/05/01 01:28:33;;;;;;;;;24.00;23.33;;;;;16.94;87.66;101214.16;5060478;28;45422;-76
2023/05/01 01:31:28;;;;;;;;;24.33;22.67;;;;;16.84;88.13;101204.66;5040579;28;45534;-75
2023/05/01 01:34:22;;;;;;;;;22.67;22.33;;;;;16.95;88.30;101211.28;5039997;28;46047;-76
2023/05/01 01:36:59;;;;;;;;;21.00;20.00;;;;;16.68;88.40;101176.34;5040630;28;46301;-76
2023/05/01 01:39:52;;;;;;;;;25.00;23.00;;;;;16.91;87.99;101210.00;5080829;28;45460;-76
2023/05/01 01:42:25;;;;;;;;;27.00;23.33;;;;;16.82;88.63;101192.47;5064217;28;45294;-76
2023/05/01 01:44:54;;;;;;;;;24.67;23.67;;;;;16.83;88.44;101203.00;5082060;28;45342;-76
2023/05/01 01:47:27;;;;;;;;;27.67;27.00;;;;;16.81;89.13;101196.16;5081792;28;46463;-76
2023/05/01 01:49:54;;;;;;;;;31.50;29.75;;;;;16.72;88.99;101188.34;5080761;28;45280;-75
2023/05/01 01:52:22;;;;;;;;;30.00;30.00;;;;;16.72;89.11;101195.53;5082098;28;45298;-76
2023/05/01 01:54:53;;;;;;;;;30.67;29.33;;;;;16.63;88.80;101184.19;5063330;28;46423;-76
2023/05/01 01:57:21;;;;;;;;;27.00;26.67;;;;;16.70;89.47;101197.63;5082087;28;45982;-76
2023/05/01 01:59:48;;;;;;;;;29.33;29.00;;;;;16.60;88.85;101181.91;5082024;28;45339;-76
2023/05/01 02:02:19;;;;;;;;;28.67;27.00;;;;;16.67;89.50;101196.16;5080511;28;45338;-76
2023/05/01 02:04:47;;;;;;;;;30.00;29.00;;;;;16.62;90.33;101190.59;5063514;28;46275;-76
2023/05/01 02:07:13;;;;;;;;;28.67;28.33;;;;;16.58;89.59;101189.34;5081726;28;45453;-76
2023/05/01 02:09:41;;;;;;;;;29.00;28.00;;;;;16.66;89.55;101205.25;5063533;28;45256;-76
2023/05/01 02:12:07;;;;;;;;;30.33;28.00;;;;;16.58;89.55;101198.19;5063730;28;45381;-75
2023/05/01 02:14:34;;;;;;;;;29.33;28.00;;;;;16.54;89.32;101194.28;5075941;28;45411;-76
2023/05/01 02:17:01;;;;;;;;;29.67;28.67;;;;;16.61;89.17;101202.34;5061987;28;48271;-76
2023/05/01 02:19:27;;;;;;;;;32.67;30.67;;;;;16.59;89.15;101189.16;5081675;28;45369;-76
2023/05/01 02:21:57;;;;;;;;;33.67;31.00;;;;;16.61;89.00;101194.31;5081455;28;45381;-76
2023/05/01 02:24:23;;;;;;;;;30.33;30.00;;;;;16.46;88.40;101179.19;5081702;28;45264;-76
2023/05/01 02:26:55;;;;;;;;;27.67;27.67;;;;;16.57;89.42;101199.25;5080070;28;47252;-76
2023/05/01 02:29:20;;;;;;;;;34.00;32.33;;;;;16.51;89.68;101189.31;5083300;27;45362;-76
2023/05/01 02:31:46;;;;;;;;;38.75;33.00;;;;;16.53;89.32;101193.44;5101680;27;45278;-76
2023/05/01 02:34:12;;;;;;;;;40.25;35.25;;;;;16.52;89.47;101188.28;5101906;27;45459;-76
2023/05/01 02:36:37;;;;;;;;;52.25;42.50;;;;;16.51;89.18;101183.94;5101415;27;53708;-76
2023/05/01 02:39:02;;;;;;;;;45.50;37.50;;;;;16.50;89.46;101176.94;5083210;27;45233;-76
2023/05/01 02:41:31;;;;;;;;;43.00;35.75;;;;;16.52;89.76;101181.06;5083519;27;45304;-75
2023/05/01 02:44:03;;;;;;;;;43.75;37.50;;;;;16.56;89.92;101188.72;5083403;27;47581;-76
2023/05/01 02:46:31;;;;;;;;;47.25;39.25;;;;;16.48;89.19;101190.56;5083039;27;48462;-76
2023/05/01 02:48:58;;;;;;;;;46.25;39.75;;;;;16.49;89.45;101188.72;5083198;27;45457;-76
2023/05/01 02:51:25;;;;;;;;;48.50;39.75;;;;;16.43;89.48;101184.97;5082093;27;45398;-76
2023/05/01 02:53:51;;;;;;;;;44.75;39.00;;;;;16.39;89.92;101189.09;5083106;27;46296;-76
2023/05/01 02:56:16;;;;;;;;;46.25;39.75;;;;;16.41;89.56;101195.91;5083093;27;47096;-76
2023/05/01 02:58:43;;;;;;;;;49.75;41.00;;;;;16.36;90.16;101190.31;5082983;27;45335;-76
2023/05/01 03:01:08;;;;;;;;;42.75;37.00;;;;;16.36;89.86;101189.50;5101779;27;45298;-76
2023/05/01 03:03:34;;;;;;;;;47.75;39.25;;;;;16.37;89.51;101191.16;5082672;27;45468;-76
2023/05/01 03:06:00;;;;;;;;;37.75;32.75;;;;;16.39;89.80;101187.25;5101302;27;45442;-76
2023/05/01 03:08:25;;;;;;;;;39.00;34.75;;;;;16.38;90.72;101190.13;5082984;27;45367;-76
2023/05/01 03:10:51;;;;;;;;;42.00;36.00;;;;;16.28;91.23;101180.59;5101418;27;45317;-76
2023/05/01 03:13:16;;;;;;;;;37.75;33.75;;;;;16.26;92.04;101185.31;5101205;27;45360;-76
2023/05/01 03:15:42;;;;;;;;;19.33;19.33;;;;;16.33;91.75;101203.28;5082836;27;47345;-76
2023/05/01 03:18:08;;;;;;;;;27.33;25.00;;;;;16.28;92.13;101190.50;5101230;27;45403;-76
2023/05/01 03:20:33;;;;;;;;;19.00;19.00;;;;;16.35;91.60;101190.53;5101257;27;45338;-75
2023/05/01 03:22:59;;;;;;;;;22.00;20.67;;;;;16.50;90.76;101195.72;5101080;27;48218;-76
2023/05/01 03:25:24;;;;;;;;;23.00;22.00;;;;;16.46;91.38;101194.47;5101179;27;45779;-76
2023/05/01 03:27:49;;;;;;;;;26.33;21.67;;;;;16.45;91.45;101196.31;5082880;27;45244;-76
2023/05/01 03:30:15;;;;;;;;;21.00;19.67;;;;;16.23;91.12;101161.63;5100772;27;51159;-76
2023/05/01 03:32:40;;;;;;;;;21.00;21.00;;;;;16.39;91.54;101189.09;5100400;27;45304;-76
2023/05/01 03:35:07;;;;;;;;;27.00;24.33;;;;;16.32;91.43;101175.66;5082638;27;47860;-76
2023/05/01 03:37:33;;;;;;;;;22.00;22.00;;;;;16.35;90.89;101187.84;5100668;27;45262;-76
2023/05/01 03:39:58;;;;;;;;;23.67;21.67;;;;;16.31;91.19;101190.09;5082397;27;45454;-76
2023/05/01 03:42:24;;;;;;;;;20.33;19.33;;;;;16.31;90.67;101192.78;5101070;27;45520;-76
2023/05/01 03:44:49;;;;;;;;;28.67;24.67;;;;;16.26;90.74;101193.38;5082407;27;47159;-76
2023/05/01 03:47:15;;;;;;;;;29.67;27.00;;;;;16.26;91.53;101189.88;5100775;27;45337;-75
2023/05/01 03:49:42;;;;;;;;;27.00;24.00;;;;;16.24;91.17;101184.72;5082534;27;45540;-76
2023/05/01 03:52:08;;;;;;;;;22.00;22.00;;;;;16.24;90.50;101192.75;5081981;27;46601;-76
2023/05/01 03:54:33;;;;;;;;;26.33;26.33;;;;;16.19;90.45;101186.34;5100554;27;45481;-76
2023/05/01 03:56:59;;;;;;;;;22.00;22.00;;;;;16.17;90.99;101186.56;5082083;27;45398;-76
2023/05/01 03:59:25;;;;;;;;;27.00;26.67;;;;;16.08;91.26;101171.66;5082454;27;45271;-76
2023/05/01 04:01:50;;;;;;;;;23.33;23.33;;;;;16.09;90.94;101171.47;5100135;27;45371;-76
2023/05/01 04:04:16;;;;;;;;;23.67;22.33;;;;;16.17;91.67;101181.19;5082231;27;48085;-76
2023/05/01 04:06:41;;;;;;;;;30.67;30.00;;;;;16.19;91.96;101186.34;5081551;27;59747;-76
2023/05/01 04:09:07;;;;;;;;;26.33;25.67;;;;;16.17;92.47;101189.25;5082272;27;45517;-76
2023/05/01 04:11:32;;;;;;;;;23.33;23.33;;;;;16.17;92.99;101183.88;5082082;27;45249;-76
2023/05/01 04:13:57;;;;;;;;;32.00;29.00;;;;;16.22;93.17;101200.16;5081493;27;59069;-76
2023/05/01 04:16:23;;;;;;;;;25.67;25.67;;;;;16.08;93.65;101171.66;5099928;27;46431;-76
2023/05/01 04:18:49;;;;;;;;;27.67;26.67;;;;;16.16;94.07;101182.19;5100412;27;45209;-76
2023/05/01 04:21:16;;;;;;;;;28.33;23.33;;;;;16.26;94.13;101190.69;5099990;27;45444;-76
2023/05/01 04:23:41;;;;;;;;;22.33;22.33;;;;;16.29;93.87;101194.84;5081793;27;47314;-76
2023/05/01 04:26:07;;;;;;;;;28.00;25.67;;;;;16.36;94.15;101211.78;5100098;27;45463;-76
2023/05/01 04:28:32;;;;;;;;;32.00;28.67;;;;;16.29;93.61;101186.78;5100234;27;45986;-76
2023/05/01 04:30:58;;;;;;;;;30.33;28.33;;;;;16.40;93.70;101202.28;5100198;27;45473;-76
2023/05/01 04:33:23;;;;;;;;;31.67;31.00;;;;;16.49;94.22;101204.81;5099683;27;45470;-76
2023/05/01 04:35:48;;;;;;;;;27.67;27.67;;;;;16.47;93.94;101204.19;5100022;27;45380;-76
2023/05/01 04:38:14;;;;;;;;;32.50;30.75;;;;;16.48;94.34;101198.59;5081852;27;45301;-76
2023/05/01 04:40:39;;;;;;;;;32.67;29.67;;;;;16.57;95.13;101203.78;5081862;27;46228;-76
2023/05/01 04:43:05;;;;;;;;;37.67;33.67;;;;;16.51;95.20;101197.38;5100135;27;45360;-76
2023/05/01 04:45:31;;;;;;;;;34.33;31.67;;;;;16.65;95.51;101203.59;5099867;27;45330;-76
2023/05/01 04:47:56;;;;;;;;;35.00;31.67;;;;;16.65;95.51;101207.09;5081531;27;45392;-76
2023/05/01 04:50:21;;;;;;;;;35.00;31.25;;;;;16.70;95.50;101205.69;5081348;27;54574;-76
2023/05/01 04:52:47;;;;;;;;;31.00;29.67;;;;;16.82;95.65;101212.06;5099667;27;45527;-75
2023/05/01 04:55:12;;;;;;;;;32.67;30.33;;;;;16.81;95.22;101202.38;5099968;27;45277;-76
2023/05/01 04:57:37;;;;;;;;;38.67;33.00;;;;;16.92;95.53;101217.06;5081554;27;45256;-76
2023/05/01 05:00:03;;;;;;;;;35.00;32.00;;;;;17.00;95.45;101210.66;5099811;27;45157;-76
2023/05/01 05:02:29;;;;;;;;;37.67;33.33;;;;;17.09;95.55;101216.69;5099379;27;46169;-75
2023/05/01 05:04:55;;;;;;;;;39.25;35.00;;;;;17.03;95.72;101219.13;5099531;27;45457;-76
2023/05/01 05:07:20;;;;;;;;;36.50;33.25;;;;;17.14;95.31;101230.31;5081371;27;45437;-76
2023/05/01 05:09:46;;;;;;;;;38.75;33.25;;;;;17.13;95.61;101229.50;5099649;27;45538;-76
2023/05/01 05:12:13;;;;;;;;;39.25;35.00;;;;;17.13;95.80;101217.91;5099390;27;45278;-76
2023/05/01 05:14:38;;;;;;;;;44.75;36.75;;;;;17.19;96.09;101221.63;5083130;27;45432;-76
2023/05/01 05:17:05;;;;;;;;;43.75;37.50;;;;;17.21;95.98;101233.00;5102788;27;45373;-76
2023/05/01 05:19:30;;;;;;;;;48.75;40.50;;;;;17.26;96.38;101228.66;5103369;27;45327;-76
2023/05/01 05:21:55;;;;;;;;;49.50;40.25;;;;;17.28;96.22;101221.22;5102800;27;45444;-76
2023/05/01 05:24:21;;;;;;;;;45.50;39.25;;;;;17.40;96.19;101234.88;5103177;27;45144;-76
2023/05/01 05:26:46;;;;;;;;;47.50;39.00;;;;;17.35;95.91;101226.59;5103265;27;45163;-76
2023/05/01 05:29:12;;;;;;;;;50.75;42.50;;;;;17.24;95.99;101203.84;5102882;27;45391;-76
2023/05/01 05:31:37;;;;;;;;;51.50;41.75;;;;;17.52;96.40;101236.91;5102594;27;45452;-76
2023/05/01 05:34:03;;;;;;;;;49.25;42.00;;;;;17.59;96.31;101239.56;5083936;27;45274;-76
2023/05/01 05:36:28;;;;;;;;;53.25;43.75;;;;;17.61;96.31;101238.34;5102215;27;45229;-76
2023/05/01 05:38:54;;;;;;;;;53.25;43.50;;;;;17.66;95.82;101241.22;5084194;27;47234;-76
2023/05/01 05:41:20;;;;;;;;;54.75;44.50;;;;;17.71;95.99;101237.91;5102814;27;46685;-76
2023/05/01 05:43:45;;;;;;;;;56.75;46.00;;;;;17.71;95.74;101242.44;5102947;27;45412;-76
2023/05/01 05:46:11;;;;;;;;;57.00;46.75;;;;;17.75;95.31;101239.13;5102662;27;45453;-76
2023/05/01 05:48:36;;;;;;;;;52.50;43.25;;;;;17.96;94.74;101247.16;5083912;27;46222;-76
2023/05/01 05:51:01;;;;;;;;;60.50;48.50;;;;;17.95;93.65;101230.19;5101902;27;53435;-76
2023/05/01 05:53:27;;;;;;;;;58.00;47.00;;;;;18.04;93.74;101234.31;5101288;27;45295;-76
2023/05/01 05:55:52;;;;;;;;;60.25;47.50;;;;;17.90;93.60;101236.19;5102864;27;45267;-76
2023/05/01 05:58:21;;;;;;;;;57.50;46.50;;;;;18.03;93.70;101237.19;5102645;27;45341;-76
2023/05/01 06:00:47;;;;;;;;;56.00;46.00;;;;;18.13;93.25;101242.16;5084169;27;47206;-76
2023/05/01 06:03:12;;;;;;;;;59.50;47.50;;;;;18.07;92.55;101235.72;5102428;27;45231;-76
2023/05/01 06:05:38;;;;;;;;;58.25;47.00;;;;;18.08;92.14;101223.94;5102399;27;45200;-76
2023/05/01 06:08:03;;;;;;;;;61.75;49.75;;;;;18.04;93.09;101234.31;5083716;27;51964;-76
2023/05/01 06:10:28;;;;;;;;;59.25;47.75;;;;;18.16;93.44;101239.03;5084066;27;46856;-76
2023/05/01 06:12:54;;;;;;;;;58.25;47.75;;;;;18.04;94.00;101238.84;5102274;27;45533;-76
2023/05/01 06:15:20;;;;;;;;;59.25;49.00;;;;;18.13;94.74;101242.16;5102429;27;45397;-76
2023/05/01 06:17:45;;;;;;;;;60.75;47.75;;;;;18.25;94.07;101253.06;5102111;27;45343;-76
2023/05/01 06:20:12;;;;;;;;;61.50;49.75;;;;;18.27;94.34;101238.38;5102104;27;46726;-76
2023/05/01 06:22:38;;;;;;;;;60.75;47.25;;;;;18.40;94.02;101242.03;5083785;27;45815;-76
2023/05/01 06:25:05;;;;;;;;;61.00;49.00;;;;;18.63;93.02;101251.44;5101937;27;45360;-76
2023/05/01 06:27:30;;;;;;;;;61.25;48.50;;;;;18.63;92.26;101256.84;5102235;27;45265;-76
2023/05/01 06:29:55;;;;;;;;;60.50;49.25;;;;;18.70;92.40;101252.22;5101690;27;45268;-76
2023/05/01 06:32:22;;;;;;;;;61.75;50.00;;;;;18.63;92.40;101246.91;5101322;27;51757;-76
2023/05/01 06:34:47;;;;;;;;;60.75;49.00;;;;;18.71;91.92;101247.69;5083772;27;45288;-75
2023/05/01 06:37:12;;;;;;;;;59.00;47.75;;;;;18.83;91.73;101235.19;5101693;27;45457;-76
2023/05/01 06:39:38;;;;;;;;;63.50;50.00;;;;;18.84;91.70;101247.59;5101890;27;46732;-76
2023/05/01 06:42:03;;;;;;;;;62.00;50.25;;;;;18.91;90.52;101252.91;5083248;27;45641;-75
2023/05/01 06:44:29;;;;;;;;;62.25;50.50;;;;;18.78;90.12;101248.47;5102133;27;45202;-75
2023/05/01 06:46:55;;;;;;;;;60.50;50.00;;;;;18.68;90.35;101241.69;5101746;27;45282;-75
2023/05/01 06:49:21;;;;;;;;;61.50;49.50;;;;;18.76;90.32;101255.91;5101630;27;47064;-75
2023/05/01 06:51:46;;;;;;;;;60.00;49.00;;;;;18.79;90.42;101256.31;5101422;27;45459;-75
2023/05/01 06:54:12;;;;;;;;;62.50;50.25;;;;;18.94;90.13;101263.25;5101639;27;45468;-75
2023/05/01 06:56:38;;;;;;;;;60.50;50.00;;;;;18.97;89.53;101260.13;5101707;27;45309;-75
2023/05/01 06:59:04;;;;;;;;;61.00;49.75;;;;;19.04;89.60;101266.28;5101493;27;45440;-76
2023/05/01 07:01:30;;;;;;;;;65.00;52.25;;;;;19.12;88.36;101262.53;5101342;27;45307;-75
2023/05/01 07:03:55;;;;;;;;;59.25;47.50;;;;;19.19;88.20;101267.91;5101602;27;45343;-76
2023/05/01 07:06:20;;;;;;;;;59.75;48.50;;;;;19.42;88.11;101263.75;5101390;27;45422;-75
2023/05/01 07:08:46;;;;;;;;;60.25;48.75;;;;;19.51;87.69;101257.03;5082894;27;47872;-75
2023/05/01 07:11:11;;;;;;;;;63.75;51.00;;;;;19.57;86.68;101246.44;5083043;27;45395;-75
2023/05/01 07:13:37;;;;;;;;;60.25;49.25;;;;;19.59;86.80;101258.63;5101531;27;45245;-75
2023/05/01 07:16:02;;;;;;;;;59.00;46.75;;;;;19.63;85.39;101267.09;5082819;27;46043;-75
2023/05/01 07:18:28;;;;;;;;;59.00;45.75;;;;;19.49;85.37;101250.22;5082640;27;47073;-75
2023/05/01 07:20:53;;;;;;;;;58.50;45.75;;;;;19.58;85.37;101264.25;5101248;27;45318;-75
2023/05/01 07:23:19;;;;;;;;;60.25;49.50;;;;;19.58;84.35;101280.41;5101502;27;45282;-75
2023/05/01 07:25:44;;;;;;;;;59.25;46.50;;;;;19.57;84.76;101274.19;5082681;27;46197;-75
2023/05/01 07:28:10;;;;;;;;;63.25;49.50;;;;;19.53;85.06;101267.59;5100803;27;45876;-75
2023/05/01 07:30:36;;;;;;;;;60.75;48.00;;;;;19.52;85.39;101265.97;5100771;27;45346;-75
2023/05/01 07:33:02;;;;;;;;;58.25;47.25;;;;;19.63;85.24;101269.81;5100695;27;45455;-75
2023/05/01 07:35:27;;;;;;;;;55.50;44.50;;;;;19.41;85.00;101235.16;5100763;27;45461;-75
2023/05/01 07:37:53;;;;;;;;;59.75;47.50;;;;;19.64;84.95;101271.44;5100072;27;46026;-75
2023/05/01 07:40:19;;;;;;;;;61.00;49.00;;;;;19.76;84.70;101271.53;5082641;27;46038;-75
2023/05/01 07:42:44;;;;;;;;;62.75;51.00;;;;;19.79;84.55;101271.09;5100958;27;45235;-75
2023/05/01 07:45:10;;;;;;;;;60.25;48.00;;;;;19.97;84.74;101270.28;5100470;27;47087;-75
2023/05/01 07:47:36;;;;;;;;;62.00;48.00;;;;;20.05;84.17;101271.84;5100504;27;45958;-76
2023/05/01 07:50:02;;;;;;;;;58.75;47.50;;;;;20.16;83.81;101271.13;5100833;27;45207;-76
2023/05/01 07:52:27;;;;;;;;;60.25;47.00;;;;;20.25;83.68;101281.59;5100837;27;45232;-76
2023/05/01 07:54:53;;;;;;;;;58.75;48.00;;;;;20.26;83.96;101267.06;5100462;27;45242;-76
2023/05/01 07:57:18;;;;;;;;;56.25;46.25;;;;;20.30;83.30;101273.66;5082230;27;47293;-75
2023/05/01 07:59:44;;;;;;;;;59.50;46.50;;;;;20.37;83.80;101265.47;5082256;27;45184;-76
2023/05/01 08:02:09;;;;;;;;;57.50;46.50;;;;;20.37;83.66;101262.75;5100670;27;45423;-75
2023/05/01 08:04:34;;;;;;;;;59.00;48.25;;;;;20.35;81.96;101254.91;5100469;27;45345;-76
2023/05/01 08:07:00;;;;;;;;;64.50;52.25;;;;;20.35;82.34;101265.69;5081886;27;47897;-76
2023/05/01 08:09:25;;;;;;;;;57.25;47.00;;;;;20.43;82.28;101272.66;5082250;27;45510;-76
2023/05/01 08:11:50;;;;;;;;;61.75;49.00;;;;;20.44;81.99;101264.34;5100571;27;45347;-76
2023/05/01 08:14:17;;;;;;;;;59.00;47.00;;;;;20.49;82.71;101258.25;5100019;27;54976;-76
2023/05/01 08:16:42;;;;;;;;;57.25;47.00;;;;;20.59;81.98;101271.19;5100213;27;46157;-76
2023/05/01 08:19:08;;;;;;;;;56.25;46.00;;;;;20.70;82.00;101280.41;5100309;27;45354;-77
2023/05/01 08:21:33;;;;;;;;;63.50;50.25;;;;;20.83;80.44;101279.38;5100466;27;45400;-76
2023/05/01 08:23:58;;;;;;;;;60.00;48.00;;;;;20.77;80.93;101278.41;5081935;27;47552;-76
2023/05/01 08:26:24;;;;;;;;;59.00;47.75;;;;;20.98;80.92;101286.28;5100266;27;45373;-78
2023/05/01 08:28:49;;;;;;;;;55.25;46.00;;;;;21.10;80.25;101273.59;5081908;27;46271;-75
2023/05/01 08:31:15;;;;;;;;;59.00;47.00;;;;;21.20;80.58;101278.44;5081563;27;45346;-76
2023/05/01 08:33:40;;;;;;;;;57.25;47.50;;;;;21.30;79.76;101276.00;5099073;27;45453;-74
2023/05/01 08:36:08;;;;;;;;;57.25;47.00;;;;;21.40;79.52;101280.00;5099228;27;45303;-75
2023/05/01 08:38:34;;;;;;;;;55.50;45.75;;;;;21.41;77.92;101287.88;5080221;27;45266;-75
2023/05/01 08:41:00;;;;;;;;;56.25;45.50;;;;;21.43;78.43;101279.53;5100184;27;45324;-74
2023/05/01 08:43:27;;;;;;;;;58.25;47.50;;;;;21.50;77.14;101285.66;5099969;27;45310;-75
2023/05/01 08:45:55;;;;;;;;;57.25;45.75;;;;;21.43;76.52;101290.34;5099852;27;46232;-75
2023/05/01 08:48:22;;;;;;;;;58.25;47.25;;;;;21.44;76.63;101291.97;5099732;27;45344;-75
2023/05/01 08:50:49;;;;;;;;;52.00;42.25;;;;;21.36;76.10;101289.59;5085182;27;45237;-75
2023/05/01 08:53:16;;;;;;;;;58.25;46.50;;;;;21.43;76.52;101301.16;5103515;27;45481;-74
2023/05/01 08:55:44;;;;;;;;;53.00;44.00;;;;;21.38;75.19;101296.44;5103338;27;45687;-75
2023/05/01 08:58:12;;;;;;;;;48.75;41.25;;;;;21.40;75.16;101294.31;5084933;27;45337;-75
2023/05/01 09:00:39;;;;;;;;;46.50;39.50;;;;;21.60;75.52;101298.56;5103560;27;45232;-76
2023/05/01 09:03:06;;;;;;;;;47.75;39.75;;;;;21.76;74.88;101302.47;5084847;27;46229;-75
2023/05/01 09:05:32;;;;;;;;;52.75;41.50;;;;;21.90;75.69;101299.50;5103014;27;46138;-75
2023/05/01 09:07:58;;;;;;;;;49.75;41.50;;;;;21.97;72.67;101297.53;5103079;27;45329;-75
2023/05/01 09:10:25;;;;;;;;;47.75;39.25;;;;;22.02;73.33;101300.31;5103335;27;45394;-75
2023/05/01 09:12:58;;;;;;;;;51.67;42.00;;;;;22.06;73.15;101290.66;5103079;27;45305;-75
2023/05/01 09:15:25;;;;;;;;;48.00;40.00;;;;;22.14;71.36;101302.19;5084501;27;48257;-75
2023/05/01 09:17:51;;;;;;;;;41.00;34.00;;;;;22.03;69.44;101293.84;5102817;27;45399;-76
2023/05/01 09:20:18;;;;;;;;;43.00;36.00;;;;;22.15;70.46;101303.84;5103077;27;45141;-75
2023/05/01 09:22:44;;;;;;;;;39.00;34.00;;;;;22.18;69.94;101295.25;5102829;27;45411;-74
2023/05/01 09:25:09;;;;;;;;;39.00;33.33;;;;;22.10;69.85;101290.19;5102832;27;45193;-75
2023/05/01 09:27:36;;;;;;;;;35.33;31.33;;;;;21.99;71.26;101287.28;5103080;27;45395;-75
2023/05/01 09:30:04;;;;;;;;;35.67;31.00;;;;;22.22;70.79;101290.16;5102796;27;45395;-75
2023/05/01 09:32:30;;;;;;;;;29.00;25.67;;;;;22.35;70.70;101291.78;5102525;27;45487;-74
2023/05/01 09:35:09;;;;;;;;;31.67;29.67;;;;;22.46;71.14;101290.91;5102554;27;45308;-74
2023/05/01 09:37:35;;;;;;;;;28.33;27.67;;;;;22.31;69.85;101296.84;5095941;27;45364;-74
2023/05/01 09:40:08;;;;;;;;;29.67;27.67;;;;;22.39;68.05;101296.47;5102869;27;45424;-75
2023/05/01 09:42:56;;;;;;;;;31.33;28.00;;;;;22.53;69.54;101302.44;5102292;27;45243;-77
2023/05/01 09:45:22;;;;;;;;;26.33;25.33;;;;;22.64;69.52;101302.66;5102260;27;45379;-76
2023/05/01 09:47:48;;;;;;;;;28.33;27.33;;;;;22.57;66.74;101295.47;5102081;27;45379;-76
2023/05/01 09:50:28;;;;;;;;;26.67;26.67;;;;;22.67;66.37;101304.88;5102188;27;45357;-76
2023/05/01 09:52:53;;;;;;;;;24.33;24.00;;;;;22.78;67.74;101298.56;5083771;27;46291;-76
2023/05/01 09:55:19;;;;;;;;;26.00;24.67;;;;;22.94;67.88;101294.25;5102223;27;45221;-76
2023/05/01 09:57:45;;;;;;;;;27.33;27.00;;;;;23.09;66.68;101292.88;5102227;27;45283;-75
2023/05/01 10:00:15;;;;;;;;;29.33;28.00;;;;;23.18;65.47;101314.97;5083420;27;45344;-75
2023/05/01 10:02:43;;;;;;;;;27.00;25.33;;;;;23.13;66.52;101313.00;5101888;27;45447;-75
2023/05/01 10:05:09;;;;;;;;;23.67;22.67;;;;;23.06;64.99;101315.03;5102122;27;45356;-75
2023/05/01 10:07:35;;;;;;;;;24.67;24.00;;;;;22.99;65.77;101319.81;5102228;27;45393;-75
2023/05/01 10:10:20;;;;;;;;;20.00;20.00;;;;;22.95;64.78;101324.88;5102057;27;45376;-75
2023/05/01 10:12:46;;;;;;;;;28.33;27.33;;;;;22.89;65.60;101317.72;5102113;27;45467;-75
2023/05/01 10:15:11;;;;;;;;;22.33;21.33;;;;;22.89;65.77;101323.13;5102071;27;45938;-75
2023/05/01 10:17:38;;;;;;;;;25.00;24.00;;;;;22.85;65.52;101321.97;5083369;27;45351;-76
2023/05/01 10:20:07;;;;;;;;;31.33;28.00;;;;;22.67;65.97;101318.41;5083935;27;45491;-75
2023/05/01 10:22:32;;;;;;;;;25.33;24.33;;;;;22.43;66.50;101291.41;5083167;27;45931;-76
2023/05/01 10:24:59;;;;;;;;;27.00;26.00;;;;;22.72;67.78;101320.41;5101624;27;45323;-76
2023/05/01 10:27:25;;;;;;;;;22.00;20.00;;;;;22.63;65.22;101328.09;5102053;27;45176;-76
2023/05/01 10:29:53;;;;;;;;;17.00;16.67;;;;;22.48;64.56;101324.00;5083382;27;45519;-75
2023/05/01 10:32:20;;;;;;;;;19.00;17.33;;;;;22.31;66.38;101323.91;5083092;27;46537;-76
2023/05/01 10:34:57;;;;;;;;;20.00;18.00;;;;;22.29;66.03;101313.34;5101544;27;45254;-75
2023/05/01 10:37:36;;;;;;;;;17.33;17.33;;;;;22.25;67.20;101327.59;5100791;27;45357;-75
2023/05/01 10:40:39;;;;;;;;;17.00;16.67;;;;;22.27;68.12;101334.41;5080760;28;45409;-76
2023/05/01 10:43:32;;;;;;;;;16.67;15.00;;;;;22.42;68.60;101333.09;5081419;28;45629;-76
2023/05/01 10:46:06;;;;;;;;;15.67;15.67;;;;;22.64;68.95;101335.16;5091320;27;45347;-76
2023/05/01 10:48:41;;;;;;;;;14.00;13.00;;;;;22.66;67.48;101333.84;5101245;27;45297;-75
2023/05/01 10:51:23;;;;;;;;;11.00;10.00;;;;;22.55;66.27;101326.56;5082679;27;45338;-76
2023/05/01 10:54:10;;;;;;;;;9.33;9.33;;;;;22.52;67.24;101332.44;5101464;27;45292;-75
2023/05/01 10:56:35;;;;;;;;;9.67;9.67;;;;;22.44;67.29;101334.47;5089922;27;45267;-75
2023/05/01 10:59:03;;;;;;;;;11.00;10.00;;;;;22.37;67.17;101324.84;5099676;27;45617;-75
2023/05/01 11:01:36;;;;;;;;;9.00;9.00;;;;;22.34;67.73;101328.88;5101289;27;45228;-75
2023/05/01 11:04:06;;;;;;;;;8.33;8.33;;;;;22.24;67.67;101334.88;5100787;27;45463;-75
2023/05/01 11:06:32;;;;;;;;;9.00;8.33;;;;;22.18;68.04;101319.59;5099670;27;47007;-75
2023/05/01 11:08:59;;;;;;;;;11.33;11.33;;;;;22.18;68.88;101323.13;5101000;27;45380;-75
2023/05/01 11:11:24;;;;;;;;;11.00;11.00;;;;;22.19;68.60;101332.91;5100178;27;45503;-76